메인 페이지
METAR-TAF:

METAR-TAF

공항 :

말라보, 적도 기니

위도: 03-45-18N, 경도: 08-42-31E, 고도: 23m

현재 날씨관측

예보는 1 시간 18분 전, 22:00시(UTC)에 발표되었습니다.
무풍
온도 23°C
습도 100%
기압 1015 hPa
시정 10km 이상
고도 1000ft 상공 구름 조금

METAR: FGSL 012200Z 00000KT 9999 FEW010 23/23 Q1015 NOSIG

시각: 00:18 (23:18 UTC)

예보

예보는 11 시간 18분 전, 12:00시(UTC)에 발표되었습니다.
예보 대상 시간: 01일 12시부터 02일 18시까지 (UTC)
서남서6kt
시정 10km 이상
고도 1000ft 상공 구름 보통
고도 2000ft 상공 구름 조금, 적란운.
일시적
01일 12시부터 01일 18시까지 (UTC)
고도 1000ft 상공 구름 많음
고도 2000ft 상공 구름 조금, 적란운.
뇌우, 비
일시적
02일 00시부터 02일 06시까지 (UTC)
시정: 4000m
고도 800ft 상공 구름 많음
고도 1800ft 상공 구름 조금, 적란운.
뇌우, 비

TAF: FGSL 011200Z 0112/0218 24006KT 9999 SCT010 FEW020CB TEMPO 0112/0118 400 TSRA BKN010 FEW020CB TEMPO 0200/0206 4000 TSRA BKN008 FEW018CB

4,000개 이상의 공항 관측 자료 및 예보 (METAR 및 TAF 보고).

지도상에서 검색 가능한 기상관측소가 노란 점과 빨간 점으로 표시되어 있습니다.

기상관측소 명을 보려면 표시 위로 마우스를 이동하세요.

날씨 관측과 예보를 보려면 클릭하세요.

지도 변경 : 확대하려면 엑스 표시가 있는 녹색 버튼, 축소하려면 빼기 표시가 있는 녹색 버튼, 다음 페이지의 지도를 보려면 녹색 화살표를 클릭하세요.


METAR-TAF: